KBIH

Bishop Airport

Bishop, California, USA
METAR KBIH 170556Z AUTO 29007KT 10SM CLR 08/M07 A3021 RMK AO2 SLP204 T00831067 10222 20083 51014
Observed Flight Rules
Oct-17 @ 05:56 UTC (22 minutes ago) Visual Flight Rules
Wind Visibility Clouds
290° at 7 knots 10 miles
  • Clear skies
Temperatures Readings
Current 8°C / 46°F
Dewpoint -7°C / 19°F
Humidity 34%
Altimeter 30.21" Hg
Pressure 1020.4 hPa
Elevation 1253
METAR KBIH 170556Z AUTO 29007KT 10SM CLR 08/M07 A3021 RMK AO2 SLP204 T00831067 10222 20083 51014
Observed Flight Rules
Oct-17 @ 05:56 UTC
(22 minutes ago)
VFR
Wind Visibility
290° at 7 knots 10 miles
Clouds
  • Clear skies
Temperature Dewpoint
8°C / 46°F -7°C / 19°F
Humidity Altimeter Pressure
34% 30.21" Hg 1020.4 hPa